• Join FlightAware (Why Join?)
  • Login
  • US Flag 
10:57PM EDT


 

Airport Tracker/Info


-or-


 

Live Flight TrackerFlight Track Log ✈ SKQ221 ✈ 29-Apr-2013 ✈ KPIT - KOSU

Flight Track Log - Related Links

Times and Time Zones

All times are in EDT time to prevent confusion due to time zone crossing. See the SKQ221 flight status page for this flight to view local times or setup timezone preferences in your user account.

Time Position Orientation Groundspeed Altitude Reporting Facility
EDT Latitude Longitude Course Direction KTS MPH feet Rate Location/Type
01:20AM 40.3275 -81.3169 260° West 179 206 6,000  Level Indianapolis Center
01:22AM 40.3177 -81.3956 261° West  Level FlightAware Approximate
01:23AM 40.3011 -81.5136 261° West 179 206 6,000  Level Indianapolis Center
01:24AM 40.2928 -81.5781 260° West 178 205 6,000  Level Indianapolis Center
01:25AM 40.4092 -80.7997 260° West  Level FlightAware Approximate
01:25AM 40.2839 -81.6439 260° West 180 207 6,000  Level Indianapolis Center
01:26AM 40.4012 -80.8578 260° West  Level FlightAware Approximate
01:26AM 40.2750 -81.7081 260° West 179 206 6,000  Level Indianapolis Center
01:27AM 40.2656 -81.7731 259° West 179 206 6,000  Level Indianapolis Center
01:28AM 40.2572 -81.8386 261° West 180 207 6,000  Level Indianapolis Center
01:29AM 40.2478 -81.9028 259° West 179 206 6,000  Level Indianapolis Center
01:30AM 40.2431 -81.9494 262° West 181 208 6,000  Level Indianapolis Center
01:30AM 40.2419 -81.9711 266° West 181 208 6,000  Level Indianapolis Center
01:31AM 40.2317 -82.0356 258° West 181 208 6,000  Level Indianapolis Center
01:32AM 40.2217 -82.1000 259° West 182 209 6,000  Level Indianapolis Center
01:33AM 40.2136 -82.1647 261° West 181 208 6,000 -240 Level Indianapolis Center
01:34AM 40.2008 -82.2344 257° West 188 216 5,600 -300 Descending Indianapolis Center
01:35AM 40.1925 -82.3044 261° West 193 222 5,500 -420 Descending Indianapolis Center
01:36AM 40.1819 -82.3714 258° West 193 222 4,800 -540 Descending Indianapolis Center
01:37AM 40.1733 -82.4414 261° West 198 228 4,500 -420 Descending Indianapolis Center
01:38AM 40.1625 -82.5111 259° West 192 221 4,000 -480 Descending Indianapolis Center
01:39AM 40.1519 -82.5783 258° West 188 216 3,600 -480 Descending Indianapolis Center
01:40AM 40.1436 -82.6456 261° West 187 215 3,100 -300 Descending Indianapolis Center
01:41AM 40.1333 -82.7103 258° West 185 213 3,000 -120 Descending Indianapolis Center
01:43AM 40.1180 -82.8143 258° West  Level FlightAware Approximate
01:50AM 40.0667 -83.0667 237° Southwest  Level FlightAware Approximate
01:51AM 40.0798 -83.0732 237° Southwest  Level Estimated